Greenfield, Wisconsin
Current Conditions -  °F | °C
As of 2:31 AM on Sunday 23 Nov 2014 (Local Time) from KMKE Reporting Station
Haze Haze  
Wind Chill: 43°   Ceiling: 1000
Heat Index: 48°   Visibility: 6mi
Dew Point: 45°   Wind: 13mph
Humidity: 89%   Direction: 200°SSW
Pressure: 29.75"   Gusts: NA
Location:  42.97°N, 88°W
Report Text: KMKE 230831Z 20011KT 6SM BR BKN010 09/07 A2975 RMK AO2 T00890072
Loading
Personal Weather Stations






























Interactive Weather Map New forecast layout! Learn more

10-Day Weather Forecast

Advertisements
Track Severe Weather on mobile